sensor_id;sensor_type;location;lat;lon;timestamp;temperature;humidity
75893;DHT22;64572;50.950;3.676;2022-11-11T00:00:32;10.90;90.50
75893;DHT22;64572;50.950;3.676;2022-11-11T00:02:58;10.80;90.60
75893;DHT22;64572;50.950;3.676;2022-11-11T00:05:25;10.90;90.60
75893;DHT22;64572;50.950;3.676;2022-11-11T00:07:52;10.90;90.50
75893;DHT22;64572;50.950;3.676;2022-11-11T00:10:18;10.80;91.00
75893;DHT22;64572;50.950;3.676;2022-11-11T00:12:44;10.80;90.90
75893;DHT22;64572;50.950;3.676;2022-11-11T00:15:10;10.80;90.70
75893;DHT22;64572;50.950;3.676;2022-11-11T00:17:36;10.80;90.60
75893;DHT22;64572;50.950;3.676;2022-11-11T00:20:20;10.80;90.70
75893;DHT22;64572;50.950;3.676;2022-11-11T00:23:04;10.80;90.70
75893;DHT22;64572;50.950;3.676;2022-11-11T00:25:53;10.80;90.90
75893;DHT22;64572;50.950;3.676;2022-11-11T00:28:19;10.80;90.90
75893;DHT22;64572;50.950;3.676;2022-11-11T00:30:44;10.80;91.00
75893;DHT22;64572;50.950;3.676;2022-11-11T00:33:10;10.80;90.90
75893;DHT22;64572;50.950;3.676;2022-11-11T00:35:36;10.80;90.70
75893;DHT22;64572;50.950;3.676;2022-11-11T00:38:20;10.80;90.70
75893;DHT22;64572;50.950;3.676;2022-11-11T00:41:04;10.70;90.80
75893;DHT22;64572;50.950;3.676;2022-11-11T00:43:30;10.70;90.80
75893;DHT22;64572;50.950;3.676;2022-11-11T00:45:56;10.70;90.90
75893;DHT22;64572;50.950;3.676;2022-11-11T00:48:42;10.80;90.90
75893;DHT22;64572;50.950;3.676;2022-11-11T00:51:26;10.80;90.70
75893;DHT22;64572;50.950;3.676;2022-11-11T00:53:53;10.70;90.90
75893;DHT22;64572;50.950;3.676;2022-11-11T00:56:19;10.70;90.90
75893;DHT22;64572;50.950;3.676;2022-11-11T00:58:45;10.70;90.80
75893;DHT22;64572;50.950;3.676;2022-11-11T01:01:11;10.70;90.80
75893;DHT22;64572;50.950;3.676;2022-11-11T01:03:36;10.80;90.80
75893;DHT22;64572;50.950;3.676;2022-11-11T01:06:03;10.70;90.90
75893;DHT22;64572;50.950;3.676;2022-11-11T01:08:30;10.70;91.00
75893;DHT22;64572;50.950;3.676;2022-11-11T01:10:56;10.80;90.90
75893;DHT22;64572;50.950;3.676;2022-11-11T01:13:27;10.80;90.70
75893;DHT22;64572;50.950;3.676;2022-11-11T01:16:01;10.70;90.80
75893;DHT22;64572;50.950;3.676;2022-11-11T01:18:27;10.70;90.80
75893;DHT22;64572;50.950;3.676;2022-11-11T01:21:06;10.70;90.70
75893;DHT22;64572;50.950;3.676;2022-11-11T01:23:33;10.80;90.60
75893;DHT22;64572;50.950;3.676;2022-11-11T01:26:11;10.70;90.70
75893;DHT22;64572;50.950;3.676;2022-11-11T01:28:37;10.70;90.70
75893;DHT22;64572;50.950;3.676;2022-11-11T01:31:10;10.70;90.60
75893;DHT22;64572;50.950;3.676;2022-11-11T01:33:37;10.70;90.60
75893;DHT22;64572;50.950;3.676;2022-11-11T01:36:10;10.60;90.50
75893;DHT22;64572;50.950;3.676;2022-11-11T01:38:37;10.70;90.60
75893;DHT22;64572;50.950;3.676;2022-11-11T01:41:04;10.70;90.30
75893;DHT22;64572;50.950;3.676;2022-11-11T01:43:51;10.70;90.60
75893;DHT22;64572;50.950;3.676;2022-11-11T01:46:35;10.70;90.60
75893;DHT22;64572;50.950;3.676;2022-11-11T01:49:29;10.60;90.50
75893;DHT22;64572;50.950;3.676;2022-11-11T01:57:10;10.60;90.60
75893;DHT22;64572;50.950;3.676;2022-11-11T01:59:38;10.60;90.60
75893;DHT22;64572;50.950;3.676;2022-11-11T02:02:11;10.60;90.40
75893;DHT22;64572;50.950;3.676;2022-11-11T02:04:42;10.60;90.50
75893;DHT22;64572;50.950;3.676;2022-11-11T02:07:27;10.60;90.50
75893;DHT22;64572;50.950;3.676;2022-11-11T02:09:53;10.50;90.70
75893;DHT22;64572;50.950;3.676;2022-11-11T02:12:20;10.50;90.70
75893;DHT22;64572;50.950;3.676;2022-11-11T02:15:05;10.50;90.70
75893;DHT22;64572;50.950;3.676;2022-11-11T02:17:31;10.60;90.60
75893;DHT22;64572;50.950;3.676;2022-11-11T02:20:02;10.50;90.60
75893;DHT22;64572;50.950;3.676;2022-11-11T02:22:43;10.40;90.70
75893;DHT22;64572;50.950;3.676;2022-11-11T02:25:16;10.40;90.70
75893;DHT22;64572;50.950;3.676;2022-11-11T02:27:46;10.40;90.70
75893;DHT22;64572;50.950;3.676;2022-11-11T02:30:14;10.50;90.60
75893;DHT22;64572;50.950;3.676;2022-11-11T02:32:45;10.40;90.70
75893;DHT22;64572;50.950;3.676;2022-11-11T02:35:24;10.30;90.80
75893;DHT22;64572;50.950;3.676;2022-11-11T02:37:51;10.30;90.70
75893;DHT22;64572;50.950;3.676;2022-11-11T02:40:22;10.30;90.80
75893;DHT22;64572;50.950;3.676;2022-11-11T02:42:48;10.30;90.80
75893;DHT22;64572;50.950;3.676;2022-11-11T02:45:13;10.30;90.50
75893;DHT22;64572;50.950;3.676;2022-11-11T02:47:39;10.30;90.70
75893;DHT22;64572;50.950;3.676;2022-11-11T02:50:05;10.20;90.80
75893;DHT22;64572;50.950;3.676;2022-11-11T02:52:31;10.10;90.80
75893;DHT22;64572;50.950;3.676;2022-11-11T02:54:57;10.10;90.90
75893;DHT22;64572;50.950;3.676;2022-11-11T02:57:23;10.20;90.80
75893;DHT22;64572;50.950;3.676;2022-11-11T02:59:49;10.20;90.80
75893;DHT22;64572;50.950;3.676;2022-11-11T03:02:15;10.20;90.80
75893;DHT22;64572;50.950;3.676;2022-11-11T03:04:41;10.10;90.60
75893;DHT22;64572;50.950;3.676;2022-11-11T03:07:07;10.10;90.70
75893;DHT22;64572;50.950;3.676;2022-11-11T03:09:33;10.10;90.70
75893;DHT22;64572;50.950;3.676;2022-11-11T03:11:58;10.00;90.80
75893;DHT22;64572;50.950;3.676;2022-11-11T03:14:24;10.10;90.80
75893;DHT22;64572;50.950;3.676;2022-11-11T03:16:50;10.00;90.80
75893;DHT22;64572;50.950;3.676;2022-11-11T03:19:35;10.00;90.90
75893;DHT22;64572;50.950;3.676;2022-11-11T03:22:01;10.00;90.90
75893;DHT22;64572;50.950;3.676;2022-11-11T03:24:29;10.00;90.90
75893;DHT22;64572;50.950;3.676;2022-11-11T03:27:15;10.00;90.80
75893;DHT22;64572;50.950;3.676;2022-11-11T03:29:41;10.00;90.90
75893;DHT22;64572;50.950;3.676;2022-11-11T03:32:07;9.90;90.90
75893;DHT22;64572;50.950;3.676;2022-11-11T03:34:33;9.90;91.00
75893;DHT22;64572;50.950;3.676;2022-11-11T03:36:59;9.90;91.10
75893;DHT22;64572;50.950;3.676;2022-11-11T03:39:43;10.00;90.90
75893;DHT22;64572;50.950;3.676;2022-11-11T03:42:08;9.90;90.90
75893;DHT22;64572;50.950;3.676;2022-11-11T03:44:34;9.90;91.00
75893;DHT22;64572;50.950;3.676;2022-11-11T03:47:00;9.90;91.00
75893;DHT22;64572;50.950;3.676;2022-11-11T03:49:25;9.90;91.00
75893;DHT22;64572;50.950;3.676;2022-11-11T03:51:51;9.90;91.00
75893;DHT22;64572;50.950;3.676;2022-11-11T03:54:17;9.90;91.10
75893;DHT22;64572;50.950;3.676;2022-11-11T03:56:42;9.90;91.00
75893;DHT22;64572;50.950;3.676;2022-11-11T03:59:08;9.80;90.90
75893;DHT22;64572;50.950;3.676;2022-11-11T04:01:34;9.80;91.00
75893;DHT22;64572;50.950;3.676;2022-11-11T04:04:17;9.80;91.00
75893;DHT22;64572;50.950;3.676;2022-11-11T04:07:01;9.90;91.00
75893;DHT22;64572;50.950;3.676;2022-11-11T04:09:53;9.80;90.90
75893;DHT22;64572;50.950;3.676;2022-11-11T04:12:40;9.80;91.00
75893;DHT22;64572;50.950;3.676;2022-11-11T04:15:25;9.80;91.00
75893;DHT22;64572;50.950;3.676;2022-11-11T04:18:09;9.80;91.00
75893;DHT22;64572;50.950;3.676;2022-11-11T04:20:35;9.80;91.10
75893;DHT22;64572;50.950;3.676;2022-11-11T04:23:20;9.80;91.10
75893;DHT22;64572;50.950;3.676;2022-11-11T04:25:45;9.80;91.10
75893;DHT22;64572;50.950;3.676;2022-11-11T04:28:13;9.70;91.10
75893;DHT22;64572;50.950;3.676;2022-11-11T04:30:58;9.80;91.20
75893;DHT22;64572;50.950;3.676;2022-11-11T04:33:23;9.80;90.90
75893;DHT22;64572;50.950;3.676;2022-11-11T04:35:49;9.70;91.10
75893;DHT22;64572;50.950;3.676;2022-11-11T04:38:15;9.70;91.20
75893;DHT22;64572;50.950;3.676;2022-11-11T04:40:59;9.70;91.20
75893;DHT22;64572;50.950;3.676;2022-11-11T04:43:30;9.80;91.10
75893;DHT22;64572;50.950;3.676;2022-11-11T04:45:59;9.70;91.00
75893;DHT22;64572;50.950;3.676;2022-11-11T04:48:25;9.70;91.10
75893;DHT22;64572;50.950;3.676;2022-11-11T04:50:51;9.70;91.10
75893;DHT22;64572;50.950;3.676;2022-11-11T04:53:17;9.70;91.20
75893;DHT22;64572;50.950;3.676;2022-11-11T04:55:43;9.70;91.30
75893;DHT22;64572;50.950;3.676;2022-11-11T04:58:30;9.70;91.20
75893;DHT22;64572;50.950;3.676;2022-11-11T05:00:56;9.70;91.20
75893;DHT22;64572;50.950;3.676;2022-11-11T05:03:21;9.80;91.10
75893;DHT22;64572;50.950;3.676;2022-11-11T05:05:52;9.80;91.10
75893;DHT22;64572;50.950;3.676;2022-11-11T05:08:43;9.70;91.10
75893;DHT22;64572;50.950;3.676;2022-11-11T05:11:26;9.80;90.80
75893;DHT22;64572;50.950;3.676;2022-11-11T05:13:54;9.80;90.90
75893;DHT22;64572;50.950;3.676;2022-11-11T05:16:52;9.80;90.90
75893;DHT22;64572;50.950;3.676;2022-11-11T05:19:37;9.80;90.90
75893;DHT22;64572;50.950;3.676;2022-11-11T05:22:29;9.70;91.00
75893;DHT22;64572;50.950;3.676;2022-11-11T05:24:55;9.70;90.90
75893;DHT22;64572;50.950;3.676;2022-11-11T05:27:40;9.70;90.90
75893;DHT22;64572;50.950;3.676;2022-11-11T05:30:08;9.60;91.00
75893;DHT22;64572;50.950;3.676;2022-11-11T05:32:34;9.50;91.20
75893;DHT22;64572;50.950;3.676;2022-11-11T05:35:00;9.60;91.30
75893;DHT22;64572;50.950;3.676;2022-11-11T05:37:26;9.60;91.30
75893;DHT22;64572;50.950;3.676;2022-11-11T05:39:51;9.50;91.20
75893;DHT22;64572;50.950;3.676;2022-11-11T05:42:17;9.50;91.30
75893;DHT22;64572;50.950;3.676;2022-11-11T05:44:43;9.50;91.30
75893;DHT22;64572;50.950;3.676;2022-11-11T05:47:08;9.50;91.30
75893;DHT22;64572;50.950;3.676;2022-11-11T05:49:34;9.50;91.30
75893;DHT22;64572;50.950;3.676;2022-11-11T05:52:00;9.50;91.20
75893;DHT22;64572;50.950;3.676;2022-11-11T05:54:26;9.50;91.30
75893;DHT22;64572;50.950;3.676;2022-11-11T05:56:52;9.40;91.30
75893;DHT22;64572;50.950;3.676;2022-11-11T05:59:17;9.40;91.40
75893;DHT22;64572;50.950;3.676;2022-11-11T06:01:43;9.40;91.30
75893;DHT22;64572;50.950;3.676;2022-11-11T06:04:09;9.40;91.30
75893;DHT22;64572;50.950;3.676;2022-11-11T06:06:35;9.40;91.40
75893;DHT22;64572;50.950;3.676;2022-11-11T06:09:02;9.50;91.30
75893;DHT22;64572;50.950;3.676;2022-11-11T06:11:28;9.40;91.20
75893;DHT22;64572;50.950;3.676;2022-11-11T06:13:54;9.50;91.20
75893;DHT22;64572;50.950;3.676;2022-11-11T06:16:20;9.50;91.10
75893;DHT22;64572;50.950;3.676;2022-11-11T06:18:46;9.50;91.10
75893;DHT22;64572;50.950;3.676;2022-11-11T06:21:12;9.50;91.10
75893;DHT22;64572;50.950;3.676;2022-11-11T06:23:38;9.60;91.00
75893;DHT22;64572;50.950;3.676;2022-11-11T06:26:04;9.60;91.10
75893;DHT22;64572;50.950;3.676;2022-11-11T06:28:43;9.60;90.90
75893;DHT22;64572;50.950;3.676;2022-11-11T06:31:11;9.50;91.00
75893;DHT22;64572;50.950;3.676;2022-11-11T06:33:37;9.60;91.00
75893;DHT22;64572;50.950;3.676;2022-11-11T06:36:04;9.50;91.00
75893;DHT22;64572;50.950;3.676;2022-11-11T06:38:30;9.50;91.00
75893;DHT22;64572;50.950;3.676;2022-11-11T06:40:56;9.50;90.90
75893;DHT22;64572;50.950;3.676;2022-11-11T06:43:22;9.50;91.00
75893;DHT22;64572;50.950;3.676;2022-11-11T06:45:52;9.50;91.00
75893;DHT22;64572;50.950;3.676;2022-11-11T06:48:19;9.50;91.00
75893;DHT22;64572;50.950;3.676;2022-11-11T06:50:45;9.50;90.90
75893;DHT22;64572;50.950;3.676;2022-11-11T06:53:13;9.50;91.10
75893;DHT22;64572;50.950;3.676;2022-11-11T06:55:38;9.40;91.00
75893;DHT22;64572;50.950;3.676;2022-11-11T06:58:09;9.50;91.00
75893;DHT22;64572;50.950;3.676;2022-11-11T07:00:36;9.50;91.00
75893;DHT22;64572;50.950;3.676;2022-11-11T07:03:03;9.60;91.00
75893;DHT22;64572;50.950;3.676;2022-11-11T07:05:29;9.50;90.90
75893;DHT22;64572;50.950;3.676;2022-11-11T07:07:55;9.40;91.00
75893;DHT22;64572;50.950;3.676;2022-11-11T07:10:21;9.50;90.80
75893;DHT22;64572;50.950;3.676;2022-11-11T07:12:47;9.50;90.90
75893;DHT22;64572;50.950;3.676;2022-11-11T07:15:13;9.40;90.90
75893;DHT22;64572;50.950;3.676;2022-11-11T07:17:38;9.30;91.10
75893;DHT22;64572;50.950;3.676;2022-11-11T07:20:05;9.40;91.10
75893;DHT22;64572;50.950;3.676;2022-11-11T07:22:35;9.40;91.10
75893;DHT22;64572;50.950;3.676;2022-11-11T07:25:01;9.40;91.00
75893;DHT22;64572;50.950;3.676;2022-11-11T07:27:27;9.40;91.00
75893;DHT22;64572;50.950;3.676;2022-11-11T07:29:53;9.40;90.90
75893;DHT22;64572;50.950;3.676;2022-11-11T07:32:18;9.40;90.80
75893;DHT22;64572;50.950;3.676;2022-11-11T07:34:44;9.40;90.90
75893;DHT22;64572;50.950;3.676;2022-11-11T07:37:10;9.40;90.90
75893;DHT22;64572;50.950;3.676;2022-11-11T07:39:35;9.50;90.80
75893;DHT22;64572;50.950;3.676;2022-11-11T07:42:01;9.40;90.70
75893;DHT22;64572;50.950;3.676;2022-11-11T07:44:27;9.40;90.90
75893;DHT22;64572;50.950;3.676;2022-11-11T07:46:52;9.40;91.00
75893;DHT22;64572;50.950;3.676;2022-11-11T07:49:18;9.40;90.80
75893;DHT22;64572;50.950;3.676;2022-11-11T07:51:43;9.40;90.70
75893;DHT22;64572;50.950;3.676;2022-11-11T07:54:09;9.40;90.70
75893;DHT22;64572;50.950;3.676;2022-11-11T07:56:35;9.40;90.80
75893;DHT22;64572;50.950;3.676;2022-11-11T07:59:01;9.50;90.60
75893;DHT22;64572;50.950;3.676;2022-11-11T08:01:26;9.40;90.70
75893;DHT22;64572;50.950;3.676;2022-11-11T08:03:52;9.50;90.50
75893;DHT22;64572;50.950;3.676;2022-11-11T08:06:19;9.60;90.40
75893;DHT22;64572;50.950;3.676;2022-11-11T08:08:45;9.60;90.30
75893;DHT22;64572;50.950;3.676;2022-11-11T08:11:13;9.60;90.20
75893;DHT22;64572;50.950;3.676;2022-11-11T08:13:39;9.60;90.30
75893;DHT22;64572;50.950;3.676;2022-11-11T08:16:13;9.50;90.30
75893;DHT22;64572;50.950;3.676;2022-11-11T08:18:39;9.50;90.30
75893;DHT22;64572;50.950;3.676;2022-11-11T08:21:06;9.50;90.20
75893;DHT22;64572;50.950;3.676;2022-11-11T08:23:32;9.50;90.30
75893;DHT22;64572;50.950;3.676;2022-11-11T08:25:59;9.50;90.30
75893;DHT22;64572;50.950;3.676;2022-11-11T08:28:26;9.50;90.10
75893;DHT22;64572;50.950;3.676;2022-11-11T08:30:52;9.50;90.30
75893;DHT22;64572;50.950;3.676;2022-11-11T08:33:18;9.70;90.20
75893;DHT22;64572;50.950;3.676;2022-11-11T08:35:44;9.70;89.60
75893;DHT22;64572;50.950;3.676;2022-11-11T08:38:10;9.80;89.50
75893;DHT22;64572;50.950;3.676;2022-11-11T08:40:35;9.90;89.10
75893;DHT22;64572;50.950;3.676;2022-11-11T08:43:01;9.90;89.00
75893;DHT22;64572;50.950;3.676;2022-11-11T08:45:27;9.90;89.10
75893;DHT22;64572;50.950;3.676;2022-11-11T08:47:52;10.00;88.10
75893;DHT22;64572;50.950;3.676;2022-11-11T08:50:18;10.20;88.50
75893;DHT22;64572;50.950;3.676;2022-11-11T08:52:48;10.20;86.90
75893;DHT22;64572;50.950;3.676;2022-11-11T08:55:15;10.10;87.30
75893;DHT22;64572;50.950;3.676;2022-11-11T08:57:41;10.10;87.60
75893;DHT22;64572;50.950;3.676;2022-11-11T09:00:08;10.20;87.50
75893;DHT22;64572;50.950;3.676;2022-11-11T09:02:34;10.20;87.70
75893;DHT22;64572;50.950;3.676;2022-11-11T09:05:00;10.40;87.20
75893;DHT22;64572;50.950;3.676;2022-11-11T09:07:26;10.40;85.90
75893;DHT22;64572;50.950;3.676;2022-11-11T09:09:52;10.40;86.10
75893;DHT22;64572;50.950;3.676;2022-11-11T09:12:17;10.50;85.70
75893;DHT22;64572;50.950;3.676;2022-11-11T09:14:43;10.60;85.30
75893;DHT22;64572;50.950;3.676;2022-11-11T09:17:09;10.60;85.30
75893;DHT22;64572;50.950;3.676;2022-11-11T09:19:34;10.60;84.70
75893;DHT22;64572;50.950;3.676;2022-11-11T09:22:00;10.90;83.70
75893;DHT22;64572;50.950;3.676;2022-11-11T09:24:25;11.00;83.60
75893;DHT22;64572;50.950;3.676;2022-11-11T09:26:51;10.90;83.70
75893;DHT22;64572;50.950;3.676;2022-11-11T09:29:17;10.50;85.10
75893;DHT22;64572;50.950;3.676;2022-11-11T09:31:44;10.50;85.80
75893;DHT22;64572;50.950;3.676;2022-11-11T09:34:11;10.60;85.40
75893;DHT22;64572;50.950;3.676;2022-11-11T09:36:37;10.90;84.10
75893;DHT22;64572;50.950;3.676;2022-11-11T09:39:02;11.20;83.90
75893;DHT22;64572;50.950;3.676;2022-11-11T09:41:49;12.30;79.80
75893;DHT22;64572;50.950;3.676;2022-11-11T09:50:04;11.90;78.90
75893;DHT22;64572;50.950;3.676;2022-11-11T09:52:32;11.70;80.60
75893;DHT22;64572;50.950;3.676;2022-11-11T09:55:04;11.70;80.40
75893;DHT22;64572;50.950;3.676;2022-11-11T09:57:39;11.50;80.70
75893;DHT22;64572;50.950;3.676;2022-11-11T10:00:23;11.70;80.10
75893;DHT22;64572;50.950;3.676;2022-11-11T10:03:04;11.50;80.80
75893;DHT22;64572;50.950;3.676;2022-11-11T10:05:41;11.10;81.50
75893;DHT22;64572;50.950;3.676;2022-11-11T10:08:27;11.10;82.50
75893;DHT22;64572;50.950;3.676;2022-11-11T10:10:55;11.30;81.80
75893;DHT22;64572;50.950;3.676;2022-11-11T10:13:31;11.60;80.80
75893;DHT22;64572;50.950;3.676;2022-11-11T10:18:51;11.70;80.40
75893;DHT22;64572;50.950;3.676;2022-11-11T10:21:50;11.70;80.30
75893;DHT22;64572;50.950;3.676;2022-11-11T10:24:37;11.70;80.40
75893;DHT22;64572;50.950;3.676;2022-11-11T10:27:16;11.80;79.90
75893;DHT22;64572;50.950;3.676;2022-11-11T10:29:43;11.90;79.80
75893;DHT22;64572;50.950;3.676;2022-11-11T10:34:41;12.10;79.70
75893;DHT22;64572;50.950;3.676;2022-11-11T10:37:19;12.30;77.30
75893;DHT22;64572;50.950;3.676;2022-11-11T10:39:49;12.40;76.30
75893;DHT22;64572;50.950;3.676;2022-11-11T10:42:17;12.80;75.80
75893;DHT22;64572;50.950;3.676;2022-11-11T10:44:43;13.10;75.40
75893;DHT22;64572;50.950;3.676;2022-11-11T10:55:26;14.20;71.90
75893;DHT22;64572;50.950;3.676;2022-11-11T10:57:57;15.50;67.60
75893;DHT22;64572;50.950;3.676;2022-11-11T11:00:23;15.80;65.80
75893;DHT22;64572;50.950;3.676;2022-11-11T11:05:33;14.70;68.50
75893;DHT22;64572;50.950;3.676;2022-11-11T11:08:15;14.10;70.40
75893;DHT22;64572;50.950;3.676;2022-11-11T11:10:46;13.80;71.90
75893;DHT22;64572;50.950;3.676;2022-11-11T11:13:22;13.70;71.60
75893;DHT22;64572;50.950;3.676;2022-11-11T11:15:56;14.00;71.50
75893;DHT22;64572;50.950;3.676;2022-11-11T11:18:24;13.90;71.30
75893;DHT22;64572;50.950;3.676;2022-11-11T11:21:01;13.80;71.30
75893;DHT22;64572;50.950;3.676;2022-11-11T11:23:42;14.00;71.40
75893;DHT22;64572;50.950;3.676;2022-11-11T11:26:10;14.20;71.60
75893;DHT22;64572;50.950;3.676;2022-11-11T11:28:57;14.50;69.40
75893;DHT22;64572;50.950;3.676;2022-11-11T11:31:38;15.70;66.30
75893;DHT22;64572;50.950;3.676;2022-11-11T11:34:04;16.60;63.30
75893;DHT22;64572;50.950;3.676;2022-11-11T11:36:30;17.50;59.30
75893;DHT22;64572;50.950;3.676;2022-11-11T11:38:55;17.70;57.90
75893;DHT22;64572;50.950;3.676;2022-11-11T11:41:42;17.40;59.30
75893;DHT22;64572;50.950;3.676;2022-11-11T11:44:29;17.50;59.30
75893;DHT22;64572;50.950;3.676;2022-11-11T11:55:21;17.20;60.50
75893;DHT22;64572;50.950;3.676;2022-11-11T12:00:29;21.00;51.80
75893;DHT22;64572;50.950;3.676;2022-11-11T12:17:26;19.40;53.60
75893;DHT22;64572;50.950;3.676;2022-11-11T12:23:13;20.00;52.80
75893;DHT22;64572;50.950;3.676;2022-11-11T12:26:06;19.90;52.00
75893;DHT22;64572;50.950;3.676;2022-11-11T12:31:30;19.40;54.30
75893;DHT22;64572;50.950;3.676;2022-11-11T12:37:22;18.60;55.10
75893;DHT22;64572;50.950;3.676;2022-11-11T12:42:40;19.30;53.30
75893;DHT22;64572;50.950;3.676;2022-11-11T12:45:12;19.70;52.30
75893;DHT22;64572;50.950;3.676;2022-11-11T13:01:59;19.60;53.40
75893;DHT22;64572;50.950;3.676;2022-11-11T13:07:10;19.60;54.70
75893;DHT22;64572;50.950;3.676;2022-11-11T13:12:30;19.40;53.80
75893;DHT22;64572;50.950;3.676;2022-11-11T13:15:23;18.60;56.70
75893;DHT22;64572;50.950;3.676;2022-11-11T13:17:48;18.40;57.80
75893;DHT22;64572;50.950;3.676;2022-11-11T13:20:42;17.90;59.10
75893;DHT22;64572;50.950;3.676;2022-11-11T13:23:09;17.30;60.90
75893;DHT22;64572;50.950;3.676;2022-11-11T13:25:38;17.00;61.50
75893;DHT22;64572;50.950;3.676;2022-11-11T13:28:31;17.20;61.00
75893;DHT22;64572;50.950;3.676;2022-11-11T13:33:45;18.10;57.10
75893;DHT22;64572;50.950;3.676;2022-11-11T13:36:15;18.70;56.70
75893;DHT22;64572;50.950;3.676;2022-11-11T13:38:53;18.50;56.80
75893;DHT22;64572;50.950;3.676;2022-11-11T13:41:27;16.70;59.60
75893;DHT22;64572;50.950;3.676;2022-11-11T13:43:56;15.70;64.20
75893;DHT22;64572;50.950;3.676;2022-11-11T13:48:52;15.40;65.80
75893;DHT22;64572;50.950;3.676;2022-11-11T13:51:36;15.40;65.70
75893;DHT22;64572;50.950;3.676;2022-11-11T13:54:05;15.30;66.90
75893;DHT22;64572;50.950;3.676;2022-11-11T13:56:44;15.10;67.50
75893;DHT22;64572;50.950;3.676;2022-11-11T13:59:25;15.10;67.90
75893;DHT22;64572;50.950;3.676;2022-11-11T14:12:53;14.90;68.20
75893;DHT22;64572;50.950;3.676;2022-11-11T14:15:44;14.90;68.10
75893;DHT22;64572;50.950;3.676;2022-11-11T14:18:37;14.60;69.20
75893;DHT22;64572;50.950;3.676;2022-11-11T14:21:03;14.90;68.40
75893;DHT22;64572;50.950;3.676;2022-11-11T14:23:33;14.70;69.60
75893;DHT22;64572;50.950;3.676;2022-11-11T14:41:45;14.80;69.40
75893;DHT22;64572;50.950;3.676;2022-11-11T14:49:53;14.20;72.50
75893;DHT22;64572;50.950;3.676;2022-11-11T14:52:27;14.20;72.20
75893;DHT22;64572;50.950;3.676;2022-11-11T14:57:41;14.10;74.60
75893;DHT22;64572;50.950;3.676;2022-11-11T15:00:19;14.20;72.60
75893;DHT22;64572;50.950;3.676;2022-11-11T15:03:08;14.30;73.80
75893;DHT22;64572;50.950;3.676;2022-11-11T15:09:01;14.50;72.50
75893;DHT22;64572;50.950;3.676;2022-11-11T15:11:48;14.40;72.80
75893;DHT22;64572;50.950;3.676;2022-11-11T15:14:38;14.00;74.60
75893;DHT22;64572;50.950;3.676;2022-11-11T15:22:44;14.00;74.30
75893;DHT22;64572;50.950;3.676;2022-11-11T15:33:49;14.10;73.70
75893;DHT22;64572;50.950;3.676;2022-11-11T15:36:35;13.90;74.00
75893;DHT22;64572;50.950;3.676;2022-11-11T15:39:12;13.70;75.00
75893;DHT22;64572;50.950;3.676;2022-11-11T15:41:41;13.60;74.60
75893;DHT22;64572;50.950;3.676;2022-11-11T15:44:25;13.60;74.90
75893;DHT22;64572;50.950;3.676;2022-11-11T15:46:53;13.70;75.00
75893;DHT22;64572;50.950;3.676;2022-11-11T15:49:38;13.50;74.10
75893;DHT22;64572;50.950;3.676;2022-11-11T15:52:24;13.50;74.50
75893;DHT22;64572;50.950;3.676;2022-11-11T15:54:51;13.50;74.00
75893;DHT22;64572;50.950;3.676;2022-11-11T15:57:32;13.50;73.60
75893;DHT22;64572;50.950;3.676;2022-11-11T16:00:01;13.40;73.20
75893;DHT22;64572;50.950;3.676;2022-11-11T16:02:32;13.10;74.80
75893;DHT22;64572;50.950;3.676;2022-11-11T16:05:18;13.00;76.00
75893;DHT22;64572;50.950;3.676;2022-11-11T16:07:46;12.90;75.20
75893;DHT22;64572;50.950;3.676;2022-11-11T16:12:56;12.60;75.20
75893;DHT22;64572;50.950;3.676;2022-11-11T16:17:53;12.50;76.70
75893;DHT22;64572;50.950;3.676;2022-11-11T16:20:21;12.40;76.20
75893;DHT22;64572;50.950;3.676;2022-11-11T16:22:54;12.30;77.20
75893;DHT22;64572;50.950;3.676;2022-11-11T16:25:21;12.20;77.00
75893;DHT22;64572;50.950;3.676;2022-11-11T16:27:48;12.10;76.90
75893;DHT22;64572;50.950;3.676;2022-11-11T16:30:31;12.00;76.90
75893;DHT22;64572;50.950;3.676;2022-11-11T16:32:58;11.70;77.00
75893;DHT22;64572;50.950;3.676;2022-11-11T16:35:31;11.50;77.40
75893;DHT22;64572;50.950;3.676;2022-11-11T16:37:59;11.60;77.40
75893;DHT22;64572;50.950;3.676;2022-11-11T16:43:19;11.40;77.80
75893;DHT22;64572;50.950;3.676;2022-11-11T16:46:03;11.30;78.50
75893;DHT22;64572;50.950;3.676;2022-11-11T16:48:34;11.00;78.50
75893;DHT22;64572;50.950;3.676;2022-11-11T16:51:06;11.10;78.60
75893;DHT22;64572;50.950;3.676;2022-11-11T16:53:34;11.10;79.00
75893;DHT22;64572;50.950;3.676;2022-11-11T16:56:02;11.00;79.80
75893;DHT22;64572;50.950;3.676;2022-11-11T16:58:28;10.90;79.60
75893;DHT22;64572;50.950;3.676;2022-11-11T17:01:01;10.80;79.80
75893;DHT22;64572;50.950;3.676;2022-11-11T17:03:27;10.50;80.80
75893;DHT22;64572;50.950;3.676;2022-11-11T17:05:54;10.40;80.00
75893;DHT22;64572;50.950;3.676;2022-11-11T17:08:40;10.50;80.10
75893;DHT22;64572;50.950;3.676;2022-11-11T17:14:04;10.60;79.40
75893;DHT22;64572;50.950;3.676;2022-11-11T17:16:31;10.70;78.30
75893;DHT22;64572;50.950;3.676;2022-11-11T17:18:59;10.80;77.90
75893;DHT22;64572;50.950;3.676;2022-11-11T17:21:24;10.80;78.20
75893;DHT22;64572;50.950;3.676;2022-11-11T17:23:52;10.80;77.50
75893;DHT22;64572;50.950;3.676;2022-11-11T17:26:17;10.70;78.50
75893;DHT22;64572;50.950;3.676;2022-11-11T17:28:43;10.60;77.70
75893;DHT22;64572;50.950;3.676;2022-11-11T17:31:11;10.50;80.00
75893;DHT22;64572;50.950;3.676;2022-11-11T17:33:37;10.40;78.50
75893;DHT22;64572;50.950;3.676;2022-11-11T17:36:03;10.40;79.30
75893;DHT22;64572;50.950;3.676;2022-11-11T17:38:34;10.30;78.90
75893;DHT22;64572;50.950;3.676;2022-11-11T17:41:00;10.20;77.60
75893;DHT22;64572;50.950;3.676;2022-11-11T17:43:25;10.20;78.40
75893;DHT22;64572;50.950;3.676;2022-11-11T17:45:51;10.20;79.10
75893;DHT22;64572;50.950;3.676;2022-11-11T17:48:17;10.00;79.40
75893;DHT22;64572;50.950;3.676;2022-11-11T17:50:43;9.90;81.70
75893;DHT22;64572;50.950;3.676;2022-11-11T17:53:09;9.90;83.00
75893;DHT22;64572;50.950;3.676;2022-11-11T17:55:34;9.90;83.40
75893;DHT22;64572;50.950;3.676;2022-11-11T17:58:00;9.80;83.90
75893;DHT22;64572;50.950;3.676;2022-11-11T18:00:27;9.70;86.20
75893;DHT22;64572;50.950;3.676;2022-11-11T18:02:53;9.70;85.30
75893;DHT22;64572;50.950;3.676;2022-11-11T18:05:19;9.60;83.20
75893;DHT22;64572;50.950;3.676;2022-11-11T18:07:46;9.70;82.10
75893;DHT22;64572;50.950;3.676;2022-11-11T18:10:12;9.80;86.50
75893;DHT22;64572;50.950;3.676;2022-11-11T18:12:38;9.80;85.70
75893;DHT22;64572;50.950;3.676;2022-11-11T18:15:06;9.80;85.50
75893;DHT22;64572;50.950;3.676;2022-11-11T18:17:32;9.70;81.10
75893;DHT22;64572;50.950;3.676;2022-11-11T18:19:57;9.80;82.00
75893;DHT22;64572;50.950;3.676;2022-11-11T18:22:23;9.90;82.60
75893;DHT22;64572;50.950;3.676;2022-11-11T18:24:49;9.80;83.90
75893;DHT22;64572;50.950;3.676;2022-11-11T18:27:15;9.90;84.40
75893;DHT22;64572;50.950;3.676;2022-11-11T18:29:41;9.80;85.30
75893;DHT22;64572;50.950;3.676;2022-11-11T18:32:08;9.80;84.00